Time;durP1;ratioP1;P1;durP2;ratioP2;P2;SDS_P1;SDS_P2;PMS_P1;PMS_P2;Temp;Humidity;BMP_temperature;BMP_pressure;BME280_temperature;BME280_humidity;BME280_pressure;Samples;Min_cycle;Max_cycle;Signal;HPM_P1;HPM_P2
2023/04/30 00:02:25;;;;;;;;;;;;;;;-144.99;87.80;52411.41;5094220;28;19979;-73
2023/04/30 00:04:51;;;;;;;;;;;;;;;-144.99;88.05;52444.03;5089383;28;19954;-70
2023/04/30 00:07:19;;;;;;;;;;;;;;;-144.99;88.16;52431.78;5075262;28;19933;-68
2023/04/30 00:09:45;;;;;;;;;;;;;;;-144.99;87.88;52452.16;5080376;28;19960;-68
2023/04/30 00:12:12;;;;;;;;;;;;;;;-144.99;88.02;52439.94;5079210;28;19924;-70
2023/04/30 00:14:38;;;;;;;;;;;;;;;-144.99;87.95;52386.94;5065901;28;19973;-68
2023/04/30 00:17:05;;;;;;;;;;;;;;;-144.99;87.95;52421.59;5065673;28;19985;-72
2023/04/30 00:19:31;;;;;;;;;;;;;;;-144.99;88.02;52407.31;5080644;28;19928;-72
2023/04/30 00:22:00;;;;;;;;;;;;;;;-144.99;88.27;52460.31;5090203;28;19928;-73
2023/04/30 00:24:28;;;;;;;;;;;;;;;-144.99;88.09;52423.63;5090698;28;20031;-73
2023/04/30 00:26:54;;;;;;;;;;;;;;;-144.99;87.90;52362.50;5074349;28;20382;-75
2023/04/30 00:29:21;;;;;;;;;;;;;;;-144.99;87.94;52403.25;5065561;28;19977;-72
2023/04/30 00:31:47;;;;;;;;;;;;;;;-144.99;87.86;52460.31;5088739;28;20006;-69
2023/04/30 00:34:14;;;;;;;;;;;;;;;-144.99;87.99;52419.56;5076970;28;19928;-70
2023/04/30 00:36:40;;;;;;;;;;;;;;;-144.99;87.84;52431.78;5075517;28;19928;-71
2023/04/30 00:39:07;;;;;;;;;;;;;;;-144.99;87.99;52395.09;5070340;28;20386;-70
2023/04/30 00:41:35;;;;;;;;;;;;;;;-144.99;87.86;52435.88;5067810;28;20021;-70
2023/04/30 00:44:02;;;;;;;;;;;;;;;-144.99;87.96;52433.81;5072309;28;19932;-70
2023/04/30 00:46:29;;;;;;;;;;;;;;;-144.99;88.14;52415.47;5065352;28;20020;-70
2023/04/30 00:48:56;;;;;;;;;;;;;;;-144.99;87.99;52452.16;5072678;28;19928;-70
2023/04/30 00:51:22;;;;;;;;;;;;;;;-144.99;88.07;52419.56;5079759;28;19931;-71
2023/04/30 00:53:49;;;;;;;;;;;;;;;-144.99;87.82;52439.94;5081137;28;20148;-71
2023/04/30 00:56:16;;;;;;;;;;;;;;;-144.99;87.92;52460.31;5066130;28;20325;-71
2023/04/30 00:58:45;;;;;;;;;;;;;;;-144.99;87.95;52407.31;5069353;28;19932;-71
2023/04/30 01:01:14;;;;;;;;;;;;;;;-144.99;87.96;52431.78;5083112;28;19995;-71
2023/04/30 01:03:42;;;;;;;;;;;;;;;-144.99;88.02;52444.03;5084578;28;19935;-69
2023/04/30 01:06:08;;;;;;;;;;;;;;;-144.99;87.89;52401.22;5075846;28;20018;-70
2023/04/30 01:08:35;;;;;;;;;;;;;;;-144.99;87.74;52464.41;5092799;28;19930;-71
2023/04/30 01:11:07;;;;;;;;;;;;;;;-144.99;88.07;52395.09;5074544;28;19932;-77
2023/04/30 01:13:39;;;;;;;;;;;;;;;-144.99;88.02;52439.94;5082515;28;19967;-74
2023/04/30 01:16:10;;;;;;;;;;;;;;;-144.99;88.00;52407.31;5077070;28;19962;-73
2023/04/30 01:18:39;;;;;;;;;;;;;;;-144.99;88.23;52435.88;5070426;28;19993;-74
2023/04/30 01:21:06;;;;;;;;;;;;;;;-144.99;88.50;52403.25;5068358;28;20109;-74
2023/04/30 01:23:41;;;;;;;;;;;;;;;-144.99;88.60;52415.47;5077560;28;20381;-74
2023/04/30 01:26:22;;;;;;;;;;;;;;;-144.99;88.70;52427.72;5068206;28;20006;-74
2023/04/30 01:28:51;;;;;;;;;;;;;;;-144.99;89.40;52415.47;5073946;28;20320;-74
2023/04/30 01:31:18;;;;;;;;;;;;;;;-144.99;89.68;52415.47;5079940;28;19929;-74
2023/04/30 01:33:45;;;;;;;;;;;;;;;-144.99;89.30;52395.09;5080346;28;20294;-74
2023/04/30 01:36:19;;;;;;;;;;;;;;;-144.99;89.63;52397.13;5069671;28;20301;-74
2023/04/30 01:39:02;;;;;;;;;;;;;;;-144.99;89.54;52413.44;5069410;28;19971;-70
2023/04/30 01:41:32;;;;;;;;;;;;;;;-144.99;89.39;52403.25;5079825;28;19924;-74
2023/04/30 01:44:06;;;;;;;;;;;;;;;-144.99;89.62;52439.94;5085749;28;20362;-69
2023/04/30 01:46:33;;;;;;;;;;;;;;;-144.99;89.58;52378.78;5072763;28;19928;-68
2023/04/30 01:49:09;;;;;;;;;;;;;;;-144.99;89.42;52427.72;5080754;28;19936;-68
2023/04/30 01:51:40;;;;;;;;;;;;;;;-144.99;89.49;52401.22;5072431;28;20452;-68
2023/04/30 01:54:12;;;;;;;;;;;;;;;-144.99;89.29;52413.44;5075604;28;19928;-69
2023/04/30 01:56:41;;;;;;;;;;;;;;;-144.99;89.00;52407.31;5070119;28;19928;-65
2023/04/30 01:59:09;;;;;;;;;;;;;;;-144.99;89.02;52415.47;5066512;28;19935;-65
2023/04/30 02:01:36;;;;;;;;;;;;;;;-144.99;89.30;52435.88;4732026;28;10000541;-64
2023/04/30 02:04:03;;;;;;;;;;;;;;;-144.99;89.43;52401.22;5066482;28;19928;-65
2023/04/30 02:06:30;;;;;;;;;;;;;;;-144.99;89.81;52384.91;5066163;28;19928;-64
2023/04/30 02:09:02;;;;;;;;;;;;;;;-144.99;89.51;52421.59;5072565;28;19972;-65
2023/04/30 02:11:28;;;;;;;;;;;;;;;-144.99;89.48;52370.63;5072593;28;20022;-69
2023/04/30 02:13:55;;;;;;;;;;;;;;;-144.99;89.48;52378.78;5068876;28;20337;-68
2023/04/30 02:16:23;;;;;;;;;;;;;;;-144.99;89.76;52407.31;5070147;28;19964;-69
2023/04/30 02:18:49;;;;;;;;;;;;;;;-144.99;89.76;52429.75;5079151;28;19928;-69
2023/04/30 02:21:16;;;;;;;;;;;;;;;-144.99;89.92;52419.56;5082657;28;20358;-69
2023/04/30 02:23:43;;;;;;;;;;;;;;;-144.99;89.91;52429.75;5087785;28;19932;-70
2023/04/30 02:26:10;;;;;;;;;;;;;;;-144.99;89.95;52437.91;5071112;28;20023;-70
2023/04/30 02:28:36;;;;;;;;;;;;;;;-144.99;90.30;52427.72;5080634;28;19989;-70
2023/04/30 02:31:03;;;;;;;;;;;;;;;-144.99;90.11;52425.66;5078954;28;20023;-71
2023/04/30 02:33:31;;;;;;;;;;;;;;;-144.99;90.42;52415.47;5077644;28;19928;-70
2023/04/30 02:35:59;;;;;;;;;;;;;;;-144.99;90.35;52437.91;5069562;28;19993;-70
2023/04/30 02:38:25;;;;;;;;;;;;;;;-144.99;90.30;52439.94;5085843;28;20004;-69
2023/04/30 02:40:52;;;;;;;;;;;;;;;-144.99;89.85;52403.25;5072962;28;19928;-72
2023/04/30 02:43:18;;;;;;;;;;;;;;;-144.99;89.68;52427.72;5069372;28;19974;-70
2023/04/30 02:45:45;;;;;;;;;;;;;;;-144.99;89.86;52425.66;5076919;28;20006;-70
2023/04/30 02:48:11;;;;;;;;;;;;;;;-144.99;89.78;52446.06;5073116;28;20001;-69
2023/04/30 02:50:39;;;;;;;;;;;;;;;-144.99;89.45;52431.78;5069037;28;20229;-69
2023/04/30 02:53:06;;;;;;;;;;;;;;;-144.99;89.90;52423.63;5070359;28;20002;-69
2023/04/30 02:55:32;;;;;;;;;;;;;;;-144.99;89.98;52407.31;5071264;28;19952;-70
2023/04/30 02:57:59;;;;;;;;;;;;;;;-144.99;89.85;52401.22;5074422;28;20175;-69
2023/04/30 03:00:26;;;;;;;;;;;;;;;-144.99;90.10;52417.53;5070787;28;19925;-70
2023/04/30 03:02:52;;;;;;;;;;;;;;;-144.99;89.89;52407.31;5073129;28;19931;-69
2023/04/30 03:05:19;;;;;;;;;;;;;;;-144.99;90.33;52468.47;5068110;28;20416;-71
2023/04/30 03:07:46;;;;;;;;;;;;;;;-144.99;90.26;52433.81;5078358;28;19973;-68
2023/04/30 03:10:13;;;;;;;;;;;;;;;-144.99;90.54;52407.31;5078627;28;20019;-68
2023/04/30 03:12:40;;;;;;;;;;;;;;;-144.99;90.44;52399.19;5075980;28;20333;-69
2023/04/30 03:15:07;;;;;;;;;;;;;;;-144.99;90.52;52403.25;5079890;28;19928;-69
2023/04/30 03:17:33;;;;;;;;;;;;;;;-144.99;90.51;52423.63;5072038;28;20243;-69
2023/04/30 03:20:00;;;;;;;;;;;;;;;-144.99;90.55;52403.25;5079322;28;19984;-69
2023/04/30 03:22:26;;;;;;;;;;;;;;;-144.99;91.00;52448.09;5076126;28;19924;-69
2023/04/30 03:24:54;;;;;;;;;;;;;;;-144.99;90.93;52435.88;5088234;28;20450;-69
2023/04/30 03:27:21;;;;;;;;;;;;;;;-144.99;90.93;52427.72;5079137;28;20261;-69
2023/04/30 03:29:48;;;;;;;;;;;;;;;-144.99;91.13;52419.56;5071763;28;20124;-71
2023/04/30 03:32:14;;;;;;;;;;;;;;;-144.99;91.21;52456.25;5070211;28;19928;-71
2023/04/30 03:34:41;;;;;;;;;;;;;;;-144.99;91.17;52419.56;5084909;28;19932;-71
2023/04/30 03:37:07;;;;;;;;;;;;;;;-144.99;91.51;52423.63;5071060;28;20037;-72
2023/04/30 03:39:36;;;;;;;;;;;;;;;-144.99;91.47;52419.56;5070106;28;20383;-71
2023/04/30 03:42:04;;;;;;;;;;;;;;;-144.99;91.58;52358.41;5082894;28;20419;-71
2023/04/30 03:44:30;;;;;;;;;;;;;;;-144.99;92.15;52386.94;5068003;28;20696;-71
2023/04/30 03:46:57;;;;;;;;;;;;;;;-144.99;92.19;52403.25;5073743;28;19982;-72
2023/04/30 03:49:23;;;;;;;;;;;;;;;-144.99;92.51;52427.72;5070911;28;19960;-74
2023/04/30 03:51:50;;;;;;;;;;;;;;;-144.99;92.57;52431.78;5068937;28;19979;-71
2023/04/30 03:54:16;;;;;;;;;;;;;;;-144.99;92.84;52431.78;5076270;28;19925;-70
2023/04/30 03:56:43;;;;;;;;;;;;;;;-144.99;92.68;52407.31;5069427;28;20589;-71
2023/04/30 03:59:11;;;;;;;;;;;;;;;-144.99;92.81;52395.09;5083760;28;20406;-71
2023/04/30 04:01:37;;;;;;;;;;;;;;;-144.99;91.81;52370.63;5079481;28;19928;-70
2023/04/30 04:04:04;;;;;;;;;;;;;;;-144.99;91.28;52366.56;5074574;28;19970;-69
2023/04/30 04:06:31;;;;;;;;;;;;;;;-144.99;90.79;52448.09;5067451;28;19960;-70
2023/04/30 04:08:57;;;;;;;;;;;;;;;-144.99;90.75;52423.63;5073258;28;19924;-70
2023/04/30 04:11:25;;;;;;;;;;;;;;;-144.99;90.60;52401.22;5086469;28;20093;-74
2023/04/30 04:13:52;;;;;;;;;;;;;;;-144.99;92.02;52382.88;5071475;28;19934;-72
2023/04/30 04:16:21;;;;;;;;;;;;;;;-144.99;90.95;52425.66;5074911;28;20227;-70
2023/04/30 04:18:47;;;;;;;;;;;;;;;-144.99;90.44;52431.78;5071395;28;19924;-73
2023/04/30 04:21:14;;;;;;;;;;;;;;;-144.99;90.00;52403.25;5078432;28;19963;-70
2023/04/30 04:23:40;;;;;;;;;;;;;;;-144.99;91.21;52439.94;5081283;28;20383;-70
2023/04/30 04:26:07;;;;;;;;;;;;;;;-144.99;91.85;52419.56;5078264;28;19954;-69
2023/04/30 04:28:33;;;;;;;;;;;;;;;-144.99;91.63;52399.19;5076710;22;20363;-70
2023/04/30 04:31:01;;;;;;;;;;;;;;;-144.99;91.62;52427.72;5050465;28;20056;-71
2023/04/30 04:33:29;;;;;;;;;;;;;;;-144.99;91.54;52384.91;5039874;28;19925;-70
2023/04/30 04:35:58;;;;;;;;;;;;;;;-144.99;91.42;52448.09;5049353;28;19925;-70
2023/04/30 04:38:25;;;;;;;;;;;;;;;-144.99;91.75;52382.88;5025591;28;19929;-70
2023/04/30 04:40:53;;;;;;;;;;;;;;;-144.99;91.83;52439.94;5026973;28;19995;-71
2023/04/30 04:43:19;;;;;;;;;;;;;;;-144.99;91.74;52435.88;5032464;28;19937;-70
2023/04/30 04:45:47;;;;;;;;;;;;;;;-144.99;91.49;52437.91;5026254;28;19929;-70
2023/04/30 04:48:13;;;;;;;;;;;;;;;-144.99;91.60;52427.72;5028164;28;19929;-70
2023/04/30 04:50:41;;;;;;;;;;;;;;;-144.99;91.77;52413.44;5026845;28;19925;-71
2023/04/30 04:53:08;;;;;;;;;;;;;;;-144.99;92.07;52407.31;5024139;28;20373;-71
2023/04/30 04:55:35;;;;;;;;;;;;;;;-144.99;92.40;52423.63;5031201;28;19929;-72
2023/04/30 04:58:01;;;;;;;;;;;;;;;-144.99;92.41;52395.09;5039214;28;19937;-71
2023/04/30 05:00:28;;;;;;;;;;;;;;;-144.99;91.89;52374.72;5036222;28;19929;-71
2023/04/30 05:02:55;;;;;;;;;;;;;;;-144.99;91.78;52419.56;5030273;28;19932;-71
2023/04/30 05:05:21;;;;;;;;;;;;;;;-144.99;91.93;52382.88;5034553;28;19964;-69
2023/04/30 05:07:51;;;;;;;;;;;;;;;-144.99;92.02;52354.34;5029111;28;19929;-69
2023/04/30 05:10:17;;;;;;;;;;;;;;;-144.99;91.60;52391.03;5037880;28;19949;-69
2023/04/30 05:12:44;;;;;;;;;;;;;;;-144.99;91.12;52397.13;5017490;28;19925;-71
2023/04/30 05:15:10;;;;;;;;;;;;;;;-144.99;90.77;52376.75;5034131;28;19996;-70
2023/04/30 05:17:37;;;;;;;;;;;;;;;-144.99;90.42;52407.31;5028177;28;20010;-69
2023/04/30 05:20:06;;;;;;;;;;;;;;;-144.99;90.03;52419.56;5027677;28;19925;-69
2023/04/30 05:22:32;;;;;;;;;;;;;;;-144.99;89.64;52366.56;5023898;28;19932;-68
2023/04/30 05:25:00;;;;;;;;;;;;;;;-144.99;89.31;52333.94;5033134;28;20354;-67
2023/04/30 05:27:26;;;;;;;;;;;;;;;-144.99;88.97;52380.84;5032990;28;19971;-64
2023/04/30 05:29:53;;;;;;;;;;;;;;;-144.99;88.53;52403.25;5027695;28;20275;-64
2023/04/30 05:32:19;;;;;;;;;;;;;;;-144.99;88.14;52378.78;5033534;28;20027;-65
2023/04/30 05:34:46;;;;;;;;;;;;;;;-144.99;87.72;52374.72;5033683;28;20020;-65
2023/04/30 05:37:13;;;;;;;;;;;;;;;-144.99;87.21;52338.03;5036412;28;19968;-66
2023/04/30 05:39:40;;;;;;;;;;;;;;;-144.99;86.98;52354.34;5037781;28;20010;-66
2023/04/30 05:42:08;;;;;;;;;;;;;;;-144.99;86.64;52348.22;5031021;28;20408;-65
2023/04/30 05:44:34;;;;;;;;;;;;;;;-144.99;85.65;52386.94;5024017;28;19968;-69
2023/04/30 05:47:01;;;;;;;;;;;;;;;-144.99;85.23;52350.25;5033000;28;20243;-71
2023/04/30 05:49:27;;;;;;;;;;;;;;;-144.99;84.60;52395.09;5038409;28;19928;-71
2023/04/30 05:51:54;;;;;;;;;;;;;;;-144.99;83.92;52336.00;5025981;28;19987;-71
2023/04/30 05:54:21;;;;;;;;;;;;;;;-144.99;83.56;52354.34;5027976;28;19975;-71
2023/04/30 05:56:47;;;;;;;;;;;;;;;-144.99;83.12;52354.34;5036233;28;19925;-70
2023/04/30 05:59:15;;;;;;;;;;;;;;;-144.99;82.60;52342.09;5036086;28;20286;-71
2023/04/30 06:01:41;;;;;;;;;;;;;;;-144.99;81.69;52354.34;5018847;28;19925;-70
2023/04/30 06:04:08;;;;;;;;;;;;;;;-144.99;81.00;52362.50;5025073;28;19987;-67
2023/04/30 06:06:35;;;;;;;;;;;;;;;-144.99;79.84;52358.41;5026214;28;19925;-68
2023/04/30 06:09:01;;;;;;;;;;;;;;;-144.99;78.92;52350.25;5041913;28;19929;-67
2023/04/30 06:11:28;;;;;;;;;;;;;;;-144.99;78.50;52333.94;5019544;28;20379;-68
2023/04/30 06:13:54;;;;;;;;;;;;;;;-144.99;78.13;52374.72;5024522;28;19925;-68
2023/04/30 06:16:23;;;;;;;;;;;;;;;-144.99;77.12;52338.03;5034694;28;19929;-68
2023/04/30 06:18:49;;;;;;;;;;;;;;;-144.99;76.73;52301.34;5035214;28;20398;-66
2023/04/30 06:21:16;;;;;;;;;;;;;;;-144.99;76.00;52338.03;5034406;28;20344;-66
2023/04/30 06:23:42;;;;;;;;;;;;;;;-144.99;75.64;52338.03;5022045;28;19925;-68
2023/04/30 06:26:09;;;;;;;;;;;;;;;-144.99;75.19;52331.91;5024314;28;19936;-68
2023/04/30 06:28:36;;;;;;;;;;;;;;;-144.99;75.30;52327.84;5030714;28;19932;-68
2023/04/30 06:31:02;;;;;;;;;;;;;;;-144.99;75.06;52352.28;5027502;28;19929;-69
2023/04/30 06:33:30;;;;;;;;;;;;;;;-144.99;74.07;52309.50;5021493;28;20016;-72
2023/04/30 06:35:57;;;;;;;;;;;;;;;-144.99;73.48;52303.38;5029347;28;20480;-71
2023/04/30 06:38:23;;;;;;;;;;;;;;;-144.99;73.29;52317.66;5033678;28;20428;-73
2023/04/30 06:40:50;;;;;;;;;;;;;;;-144.99;73.48;52327.84;5032750;28;19967;-70
2023/04/30 06:43:17;;;;;;;;;;;;;;;-144.99;72.86;52346.19;5024088;28;19925;-68
2023/04/30 06:45:43;;;;;;;;;;;;;;;-144.99;72.42;52346.19;5020701;28;20011;-69
2023/04/30 06:48:10;;;;;;;;;;;;;;;-144.99;72.86;52329.88;5027706;28;19925;-67
2023/04/30 06:50:43;;;;;;;;;;;;;;;-144.99;72.54;52362.50;5031454;28;19971;-68
2023/04/30 06:53:10;;;;;;;;;;;;;;;-144.99;71.85;52309.50;5025554;28;19929;-67
2023/04/30 06:55:37;;;;;;;;;;;;;;;-144.99;71.27;52325.81;5025003;28;19944;-67
2023/04/30 06:58:04;;;;;;;;;;;;;;;-144.99;70.24;52331.91;5032387;28;19987;-67
2023/04/30 07:00:31;;;;;;;;;;;;;;;-144.99;70.11;52342.09;5016960;28;20066;-70
2023/04/30 07:02:59;;;;;;;;;;;;;;;-144.99;69.54;52338.03;5021102;28;19933;-70
2023/04/30 07:05:26;;;;;;;;;;;;;;;-144.99;70.01;52297.25;5027001;28;19983;-74
2023/04/30 07:07:54;;;;;;;;;;;;;;;-144.99;69.78;52323.75;5018302;28;19924;-73
2023/04/30 07:10:20;;;;;;;;;;;;;;;-144.99;69.64;52313.56;5028080;28;20381;-71
2023/04/30 07:12:47;;;;;;;;;;;;;;;-144.99;69.09;52303.38;5032977;28;19936;-70
2023/04/30 07:15:13;;;;;;;;;;;;;;;-144.99;70.01;52293.19;5033767;28;20317;-69
2023/04/30 07:17:40;;;;;;;;;;;;;;;-144.99;69.26;52329.88;5033680;28;19928;-69
2023/04/30 07:20:08;;;;;;;;;;;;;;;-144.99;72.87;52313.56;5030735;28;19925;-70
2023/04/30 07:22:34;;;;;;;;;;;;;;;-144.99;70.55;52311.53;5045626;28;19929;-70
2023/04/30 07:25:02;;;;;;;;;;;;;;;-144.99;70.41;52321.72;5038978;28;19933;-70
2023/04/30 07:27:28;;;;;;;;;;;;;;;-144.99;69.80;52301.34;5024842;28;19929;-70
2023/04/30 07:29:55;;;;;;;;;;;;;;;-144.99;69.34;52293.19;5017942;28;19933;-70
2023/04/30 07:32:22;;;;;;;;;;;;;;;-144.99;68.71;52333.94;5029970;28;19933;-70
2023/04/30 07:34:48;;;;;;;;;;;;;;;-144.99;68.26;52260.56;5028193;28;19929;-71
2023/04/30 07:37:15;;;;;;;;;;;;;;;-144.99;68.20;52272.81;5028018;28;19925;-71
2023/04/30 07:39:41;;;;;;;;;;;;;;;-144.99;68.73;52317.66;5028276;28;19979;-70
2023/04/30 07:42:09;;;;;;;;;;;;;;;-144.99;67.91;52321.72;5025986;28;20369;-69
2023/04/30 07:44:36;;;;;;;;;;;;;;;-144.99;67.63;52315.59;5037630;28;20018;-70
2023/04/30 07:47:02;;;;;;;;;;;;;;;-144.99;67.11;52301.34;5035621;28;19932;-70
2023/04/30 07:49:29;;;;;;;;;;;;;;;-144.99;67.84;52336.00;5024555;28;19933;-71
2023/04/30 07:51:56;;;;;;;;;;;;;;;-144.99;67.22;52315.59;5029614;28;19968;-71
2023/04/30 07:54:23;;;;;;;;;;;;;;;-144.99;67.29;52344.16;5027485;28;19929;-70
2023/04/30 07:56:49;;;;;;;;;;;;;;;-144.99;67.88;52289.13;5028485;28;19925;-70
2023/04/30 07:59:17;;;;;;;;;;;;;;;-144.99;67.40;52285.03;5019521;28;20026;-68
2023/04/30 08:01:44;;;;;;;;;;;;;;;-144.99;66.48;52295.22;5016064;28;19929;-70
2023/04/30 08:04:11;;;;;;;;;;;;;;;-144.99;65.52;52342.09;5019129;28;19983;-69
2023/04/30 08:06:37;;;;;;;;;;;;;;;-144.99;65.64;52305.41;5028558;28;20024;-68
2023/04/30 08:09:04;;;;;;;;;;;;;;;-144.99;65.20;52301.34;5033621;28;20459;-68
2023/04/30 08:11:31;;;;;;;;;;;;;;;-144.99;65.19;52329.88;5031008;28;19928;-68
2023/04/30 08:13:57;;;;;;;;;;;;;;;-144.99;65.06;52327.84;5031909;28;20071;-68
2023/04/30 08:16:25;;;;;;;;;;;;;;;-144.99;65.08;52333.94;5037770;28;19968;-69
2023/04/30 08:18:51;;;;;;;;;;;;;;;-144.99;64.46;52293.19;5031197;28;19936;-68
2023/04/30 08:21:18;;;;;;;;;;;;;;;-144.99;64.37;52297.25;5034440;28;20283;-69
2023/04/30 08:23:44;;;;;;;;;;;;;;;-144.99;64.94;52280.97;5034155;28;20719;-69
2023/04/30 08:26:11;;;;;;;;;;;;;;;-144.99;64.83;52305.41;5033407;28;21703;-67
2023/04/30 08:28:39;;;;;;;;;;;;;;;-144.99;64.60;52305.41;5029956;28;19983;-70
2023/04/30 08:31:05;;;;;;;;;;;;;;;-144.99;64.14;52289.13;5037367;28;19929;-68
2023/04/30 08:33:33;;;;;;;;;;;;;;;-144.99;64.07;52287.06;5020156;28;20500;-71
2023/04/30 08:36:00;;;;;;;;;;;;;;;-144.99;63.44;52268.72;5037833;28;20122;-69
2023/04/30 08:38:28;;;;;;;;;;;;;;;-144.99;63.30;52280.97;5032213;28;19925;-70
2023/04/30 08:41:02;;;;;;;;;;;;;;;-144.99;63.29;52285.03;5026444;28;20432;-70
2023/04/30 08:43:29;;;;;;;;;;;;;;;-144.99;63.39;52260.56;5028550;28;19964;-66
2023/04/30 08:45:56;;;;;;;;;;;;;;;-144.99;63.41;52291.16;5026685;28;19962;-71
2023/04/30 08:48:25;;;;;;;;;;;;;;;-144.99;64.12;52293.19;5027209;28;19979;-72
2023/04/30 08:50:52;;;;;;;;;;;;;;;-144.99;63.62;52313.56;5030070;28;19939;-72
2023/04/30 08:53:20;;;;;;;;;;;;;;;-144.99;64.21;52309.50;5024305;28;20455;-70
2023/04/30 08:55:47;;;;;;;;;;;;;;;-144.99;64.96;52313.56;5027584;28;19936;-70
2023/04/30 08:58:13;;;;;;;;;;;;;;;-144.99;64.70;52297.25;5030237;28;20337;-70
2023/04/30 09:00:40;;;;;;;;;;;;;;;-144.99;65.19;52301.34;5015367;28;19956;-70
2023/04/30 09:03:07;;;;;;;;;;;;;;;-144.99;64.37;52285.03;5021598;28;19964;-70
2023/04/30 09:05:34;;;;;;;;;;;;;;;-144.99;63.92;52303.38;5028797;28;19929;-69
2023/04/30 09:08:01;;;;;;;;;;;;;;;-144.99;63.51;52256.50;5024031;28;19964;-70
2023/04/30 09:10:31;;;;;;;;;;;;;;;-144.99;63.31;52293.19;5025832;28;19929;-69
2023/04/30 09:12:59;;;;;;;;;;;;;;;-144.99;62.93;52276.88;5025928;28;20006;-70
2023/04/30 09:15:25;;;;;;;;;;;;;;;-144.99;62.83;52276.88;5021305;28;20460;-70
2023/04/30 09:18:05;;;;;;;;;;;;;;;-144.99;62.68;52278.91;5020705;28;20058;-71
2023/04/30 09:20:32;;;;;;;;;;;;;;;-144.99;63.13;52260.56;5013132;28;19936;-69
2023/04/30 09:23:06;;;;;;;;;;;;;;;-144.99;62.87;52280.97;4336023;28;10000621;-68
2023/04/30 09:25:38;;;;;;;;;;;;;;;-144.99;62.19;52236.13;5028393;28;19929;-69
2023/04/30 09:28:08;;;;;;;;;;;;;;;-144.99;61.90;52256.50;5025614;28;19986;-69
2023/04/30 09:30:35;;;;;;;;;;;;;;;-144.99;61.94;52276.88;5025081;28;19926;-70
2023/04/30 09:33:02;;;;;;;;;;;;;;;-144.99;61.58;52227.97;5032678;28;19983;-69
2023/04/30 09:35:29;;;;;;;;;;;;;;;-144.99;61.96;52285.03;5019281;28;20095;-68
2023/04/30 09:37:56;;;;;;;;;;;;;;;-144.99;61.84;52291.16;5017791;28;19929;-68
2023/04/30 09:40:34;;;;;;;;;;;;;;;-144.99;61.85;52227.97;5026393;28;20034;-68
2023/04/30 09:43:01;;;;;;;;;;;;;;;-144.99;61.10;52238.16;5017461;28;19984;-70
2023/04/30 09:45:27;;;;;;;;;;;;;;;-144.99;60.85;52223.88;5033611;28;19928;-69
2023/04/30 09:47:54;;;;;;;;;;;;;;;-144.99;61.03;52248.34;5020147;28;20275;-69
2023/04/30 09:50:21;;;;;;;;;;;;;;;-144.99;61.94;52227.97;5026532;28;19972;-72
2023/04/30 09:52:50;;;;;;;;;;;;;;;-144.99;60.44;52236.13;5023406;28;19929;-71
2023/04/30 09:55:17;;;;;;;;;;;;;;;-144.99;60.54;52236.13;5024117;28;19937;-69
2023/04/30 09:57:46;;;;;;;;;;;;;;;-144.99;61.06;52227.97;5017072;28;19980;-70
2023/04/30 10:00:14;;;;;;;;;;;;;;;-144.99;60.19;52264.66;5029522;28;19933;-70
2023/04/30 10:02:41;;;;;;;;;;;;;;;-144.99;59.54;52197.41;5025902;28;19936;-69
2023/04/30 10:05:08;;;;;;;;;;;;;;;-144.99;59.10;52211.66;5021467;28;19929;-69
2023/04/30 10:07:36;;;;;;;;;;;;;;;-144.99;59.10;52191.28;5031560;28;19991;-69
2023/04/30 10:10:04;;;;;;;;;;;;;;;-144.99;58.39;52199.44;5035560;28;19983;-69
2023/04/30 10:12:34;;;;;;;;;;;;;;;-144.99;58.84;52138.28;5025997;28;20449;-71
2023/04/30 10:15:17;;;;;;;;;;;;;;;-144.99;58.75;52142.38;5026536;28;19936;-70
2023/04/30 10:17:46;;;;;;;;;;;;;;;-144.99;58.48;52183.13;5021203;28;20324;-70
2023/04/30 10:20:12;;;;;;;;;;;;;;;-144.99;59.13;52183.13;5026280;28;19983;-70
2023/04/30 10:22:40;;;;;;;;;;;;;;;-144.99;58.77;52179.06;5027191;28;19929;-70
2023/04/30 10:25:10;;;;;;;;;;;;;;;-144.99;58.44;52240.19;5031351;28;20222;-72
2023/04/30 10:27:36;;;;;;;;;;;;;;;-144.99;59.31;52179.06;5026581;28;19933;-70
2023/04/30 10:30:05;;;;;;;;;;;;;;;-144.99;59.16;52164.78;5026121;28;19929;-70
2023/04/30 10:32:36;;;;;;;;;;;;;;;-144.99;58.91;52187.19;5025765;28;19937;-70
2023/04/30 10:35:08;;;;;;;;;;;;;;;-144.99;58.81;52183.13;5026008;28;20412;-69
2023/04/30 10:37:39;;;;;;;;;;;;;;;-144.99;58.47;52158.66;5025787;28;20442;-70
2023/04/30 10:40:08;;;;;;;;;;;;;;;-144.99;58.38;52117.91;5027697;28;19979;-71
2023/04/30 10:42:34;;;;;;;;;;;;;;;-144.99;58.02;52107.72;5020493;28;20283;-69
2023/04/30 10:45:02;;;;;;;;;;;;;;;-144.99;57.82;52105.69;5017906;28;20099;-69
2023/04/30 10:47:30;;;;;;;;;;;;;;;-144.99;57.21;52089.38;5017992;28;19929;-70
2023/04/30 10:50:02;;;;;;;;;;;;;;;-144.99;57.63;52077.16;5029353;28;20040;-70
2023/04/30 10:52:29;;;;;;;;;;;;;;;-144.99;57.24;52101.59;5016921;28;19929;-70
2023/04/30 10:54:56;;;;;;;;;;;;;;;-144.99;56.72;52040.47;5013064;28;19935;-70
2023/04/30 10:57:23;;;;;;;;;;;;;;;-144.99;56.81;52060.84;5016739;28;20033;-71
2023/04/30 10:59:53;;;;;;;;;;;;;;;-144.99;56.37;52099.56;5015591;28;19933;-70
2023/04/30 11:02:20;;;;;;;;;;;;;;;-144.99;55.84;52077.16;5016023;28;19933;-72
2023/04/30 11:05:11;;;;;;;;;;;;;;;-144.99;57.44;52097.53;5013146;28;20050;-70
2023/04/30 11:07:47;;;;;;;;;;;;;;;-144.99;57.28;52081.22;4999250;28;20001;-70
2023/04/30 11:10:13;;;;;;;;;;;;;;;-144.99;56.02;52040.47;5014571;28;19933;-69
2023/04/30 11:12:41;;;;;;;;;;;;;;;-144.99;57.09;52077.16;5016910;28;19929;-72
2023/04/30 11:15:12;;;;;;;;;;;;;;;-144.99;56.54;52060.84;5021386;28;19929;-70
2023/04/30 11:17:39;;;;;;;;;;;;;;;-144.99;57.17;52091.41;5019925;28;20431;-70
2023/04/30 11:20:06;;;;;;;;;;;;;;;-144.99;57.38;52121.97;5021342;28;19929;-70
2023/04/30 11:22:35;;;;;;;;;;;;;;;-144.99;57.44;52089.38;5021411;28;20390;-70
2023/04/30 11:25:08;;;;;;;;;;;;;;;-144.99;57.74;52103.66;5019519;28;20382;-70
2023/04/30 11:27:35;;;;;;;;;;;;;;;-144.99;58.18;52095.50;5024304;28;20024;-72
2023/04/30 11:30:04;;;;;;;;;;;;;;;-144.99;58.02;52052.69;5019157;28;19955;-71
2023/04/30 11:32:34;;;;;;;;;;;;;;;-144.99;58.30;52087.34;5023681;28;19935;-70
2023/04/30 11:35:02;;;;;;;;;;;;;;;-144.99;58.59;52099.56;5025298;28;20189;-70
2023/04/30 11:37:31;;;;;;;;;;;;;;;-144.99;58.90;52115.88;5027123;28;20010;-71
2023/04/30 11:40:00;;;;;;;;;;;;;;;-144.99;58.59;52060.84;5028709;28;20020;-71
2023/04/30 11:42:29;;;;;;;;;;;;;;;-144.99;57.95;52056.78;5025307;28;19936;-70
2023/04/30 11:45:02;;;;;;;;;;;;;;;-144.99;56.74;52052.69;5023558;28;19975;-72
2023/04/30 11:47:38;;;;;;;;;;;;;;;-144.99;56.18;52044.53;5028573;28;19968;-72
2023/04/30 11:50:05;;;;;;;;;;;;;;;-144.99;55.31;52011.94;5027825;28;19925;-71
2023/04/30 11:52:31;;;;;;;;;;;;;;;-144.99;55.74;52056.78;5026864;28;20370;-72
2023/04/30 11:54:59;;;;;;;;;;;;;;;-144.99;54.98;52032.31;5027279;28;19937;-73
2023/04/30 11:57:25;;;;;;;;;;;;;;;-144.99;55.03;52052.69;5024878;28;19954;-71
2023/04/30 11:59:53;;;;;;;;;;;;;;;-144.99;54.50;52036.38;5027429;28;19929;-70
2023/04/30 12:02:20;;;;;;;;;;;;;;;-144.99;55.40;52040.47;5026035;28;19929;-72
2023/04/30 12:04:47;;;;;;;;;;;;;;;-144.99;54.33;52032.31;5028379;28;19925;-72
2023/04/30 12:07:14;;;;;;;;;;;;;;;-144.99;54.15;52036.38;5030036;28;19933;-72
2023/04/30 12:09:53;;;;;;;;;;;;;;;-144.99;54.38;52054.72;5030298;28;20024;-72
2023/04/30 12:12:26;;;;;;;;;;;;;;;-144.99;53.96;52022.13;5023770;28;19932;-71
2023/04/30 12:14:54;;;;;;;;;;;;;;;-144.99;54.52;51995.63;5028075;28;19933;-73
2023/04/30 12:17:30;;;;;;;;;;;;;;;-144.99;53.83;52048.63;5026871;28;19933;-70
2023/04/30 12:19:57;;;;;;;;;;;;;;;-144.99;54.61;52020.09;5031248;28;19929;-71
2023/04/30 12:22:24;;;;;;;;;;;;;;;-144.99;54.80;52075.09;5028664;28;19929;-74
2023/04/30 12:24:50;;;;;;;;;;;;;;;-144.99;55.32;52069.00;5028902;28;19933;-71
2023/04/30 12:27:17;;;;;;;;;;;;;;;-144.99;54.39;52081.22;5027769;28;19933;-74
2023/04/30 12:29:44;;;;;;;;;;;;;;;-144.99;54.36;52052.69;5027748;28;19964;-71